sensor_id;sensor_type;location;lat;lon;timestamp;P1;P2;P0
66336;PMS1003;53139;45.576;5.304;2023-02-18T00:02:10;34.25;28.75;21.00
66336;PMS1003;53139;45.576;5.304;2023-02-18T00:05:11;29.50;25.00;17.25
66336;PMS1003;53139;45.576;5.304;2023-02-18T00:08:12;32.00;26.25;18.75
66336;PMS1003;53139;45.576;5.304;2023-02-18T00:11:13;36.75;34.50;23.00
66336;PMS1003;53139;45.576;5.304;2023-02-18T00:14:15;33.25;27.75;20.75
66336;PMS1003;53139;45.576;5.304;2023-02-18T00:17:16;43.50;35.00;23.50
66336;PMS1003;53139;45.576;5.304;2023-02-18T00:20:16;48.50;36.75;24.00
66336;PMS1003;53139;45.576;5.304;2023-02-18T00:23:17;40.75;33.00;22.25
66336;PMS1003;53139;45.576;5.304;2023-02-18T00:26:17;32.25;29.75;22.00
66336;PMS1003;53139;45.576;5.304;2023-02-18T00:29:19;33.00;31.50;22.75
66336;PMS1003;53139;45.576;5.304;2023-02-18T00:32:19;34.50;29.50;22.00
66336;PMS1003;53139;45.576;5.304;2023-02-18T00:35:20;53.25;43.25;28.75
66336;PMS1003;53139;45.576;5.304;2023-02-18T00:38:20;53.50;40.25;27.50
66336;PMS1003;53139;45.576;5.304;2023-02-18T00:41:21;81.00;58.00;35.25
66336;PMS1003;53139;45.576;5.304;2023-02-18T00:44:23;64.00;48.50;30.00
66336;PMS1003;53139;45.576;5.304;2023-02-18T00:47:23;54.75;41.00;26.50
66336;PMS1003;53139;45.576;5.304;2023-02-18T00:50:23;55.25;43.25;27.50
66336;PMS1003;53139;45.576;5.304;2023-02-18T00:53:24;47.50;37.50;26.25
66336;PMS1003;53139;45.576;5.304;2023-02-18T00:56:24;51.00;37.75;24.75
66336;PMS1003;53139;45.576;5.304;2023-02-18T00:59:25;44.00;32.00;22.50
66336;PMS1003;53139;45.576;5.304;2023-02-18T01:02:25;31.75;29.00;21.00
66336;PMS1003;53139;45.576;5.304;2023-02-18T01:05:25;36.75;31.00;20.00
66336;PMS1003;53139;45.576;5.304;2023-02-18T01:08:26;62.75;48.50;29.75
66336;PMS1003;53139;45.576;5.304;2023-02-18T01:11:26;37.50;32.25;23.75
66336;PMS1003;53139;45.576;5.304;2023-02-18T01:14:27;37.00;34.25;23.00
66336;PMS1003;53139;45.576;5.304;2023-02-18T01:17:27;31.00;30.25;21.25
66336;PMS1003;53139;45.576;5.304;2023-02-18T01:20:28;29.00;26.00;17.00
66336;PMS1003;53139;45.576;5.304;2023-02-18T01:23:28;30.25;24.75;19.50
66336;PMS1003;53139;45.576;5.304;2023-02-18T01:26:29;37.50;26.25;19.75
66336;PMS1003;53139;45.576;5.304;2023-02-18T01:29:29;34.75;29.25;20.25
66336;PMS1003;53139;45.576;5.304;2023-02-18T01:32:30;29.75;25.75;18.25
66336;PMS1003;53139;45.576;5.304;2023-02-18T01:35:30;30.50;27.75;18.25
66336;PMS1003;53139;45.576;5.304;2023-02-18T01:38:31;31.75;27.50;20.75
66336;PMS1003;53139;45.576;5.304;2023-02-18T01:41:31;34.00;26.00;19.50
66336;PMS1003;53139;45.576;5.304;2023-02-18T01:44:32;30.00;26.00;19.00
66336;PMS1003;53139;45.576;5.304;2023-02-18T01:47:33;31.25;26.75;19.00
66336;PMS1003;53139;45.576;5.304;2023-02-18T01:50:35;31.00;25.00;17.50
66336;PMS1003;53139;45.576;5.304;2023-02-18T01:53:48;30.00;25.75;17.50
66336;PMS1003;53139;45.576;5.304;2023-02-18T01:57:11;31.25;28.25;18.25
66336;PMS1003;53139;45.576;5.304;2023-02-18T02:00:16;36.00;30.00;20.75
66336;PMS1003;53139;45.576;5.304;2023-02-18T02:03:20;36.00;30.75;20.75
66336;PMS1003;53139;45.576;5.304;2023-02-18T02:06:21;34.75;24.25;17.25
66336;PMS1003;53139;45.576;5.304;2023-02-18T02:09:23;31.25;27.75;18.00
66336;PMS1003;53139;45.576;5.304;2023-02-18T02:15:54;26.75;24.25;17.75
66336;PMS1003;53139;45.576;5.304;2023-02-18T02:36:30;32.50;26.00;20.50
66336;PMS1003;53139;45.576;5.304;2023-02-18T02:46:18;29.00;25.00;19.50
66336;PMS1003;53139;45.576;5.304;2023-02-18T02:52:58;30.50;27.00;19.25
66336;PMS1003;53139;45.576;5.304;2023-02-18T02:56:04;30.25;25.75;18.00
66336;PMS1003;53139;45.576;5.304;2023-02-18T02:59:05;27.00;24.00;17.00
66336;PMS1003;53139;45.576;5.304;2023-02-18T03:02:17;23.00;22.75;16.75
66336;PMS1003;53139;45.576;5.304;2023-02-18T03:15:23;26.00;23.75;16.75
66336;PMS1003;53139;45.576;5.304;2023-02-18T03:18:33;27.25;25.50;17.25
66336;PMS1003;53139;45.576;5.304;2023-02-18T03:21:48;26.00;22.50;17.25
66336;PMS1003;53139;45.576;5.304;2023-02-18T03:24:55;25.75;21.75;15.50
66336;PMS1003;53139;45.576;5.304;2023-02-18T03:27:58;31.75;26.75;18.75
66336;PMS1003;53139;45.576;5.304;2023-02-18T03:31:03;32.00;29.00;19.75
66336;PMS1003;53139;45.576;5.304;2023-02-18T03:34:09;29.00;26.25;18.50
66336;PMS1003;53139;45.576;5.304;2023-02-18T03:37:12;26.50;22.50;15.25
66336;PMS1003;53139;45.576;5.304;2023-02-18T03:40:14;28.00;23.50;15.75
66336;PMS1003;53139;45.576;5.304;2023-02-18T03:43:16;23.25;22.25;16.00
66336;PMS1003;53139;45.576;5.304;2023-02-18T03:46:17;27.50;22.75;16.00
66336;PMS1003;53139;45.576;5.304;2023-02-18T03:49:18;26.75;25.00;18.00
66336;PMS1003;53139;45.576;5.304;2023-02-18T03:52:18;28.50;24.25;17.50
66336;PMS1003;53139;45.576;5.304;2023-02-18T03:55:18;30.75;26.00;17.00
66336;PMS1003;53139;45.576;5.304;2023-02-18T03:58:19;26.75;22.75;16.00
66336;PMS1003;53139;45.576;5.304;2023-02-18T04:01:19;25.75;23.25;17.00
66336;PMS1003;53139;45.576;5.304;2023-02-18T04:04:20;28.25;24.25;18.00
66336;PMS1003;53139;45.576;5.304;2023-02-18T04:07:20;55.50;41.00;29.25
66336;PMS1003;53139;45.576;5.304;2023-02-18T04:10:21;31.00;26.00;19.00
66336;PMS1003;53139;45.576;5.304;2023-02-18T04:13:21;31.00;23.00;16.00
66336;PMS1003;53139;45.576;5.304;2023-02-18T04:16:22;22.75;22.75;16.25
66336;PMS1003;53139;45.576;5.304;2023-02-18T04:19:23;28.75;24.50;18.00
66336;PMS1003;53139;45.576;5.304;2023-02-18T04:22:23;30.50;22.25;15.00
66336;PMS1003;53139;45.576;5.304;2023-02-18T04:25:24;28.25;22.00;17.00
66336;PMS1003;53139;45.576;5.304;2023-02-18T04:28:24;31.50;26.75;19.00
66336;PMS1003;53139;45.576;5.304;2023-02-18T04:31:25;28.75;25.50;17.00
66336;PMS1003;53139;45.576;5.304;2023-02-18T04:34:25;30.50;26.25;16.25
66336;PMS1003;53139;45.576;5.304;2023-02-18T04:37:25;23.00;22.25;16.50
66336;PMS1003;53139;45.576;5.304;2023-02-18T04:40:26;27.25;24.00;16.00
66336;PMS1003;53139;45.576;5.304;2023-02-18T04:43:29;29.75;22.75;16.75
66336;PMS1003;53139;45.576;5.304;2023-02-18T04:46:29;23.25;19.50;12.25
66336;PMS1003;53139;45.576;5.304;2023-02-18T04:49:30;31.00;25.75;18.00
66336;PMS1003;53139;45.576;5.304;2023-02-18T04:52:31;30.50;25.00;18.00
66336;PMS1003;53139;45.576;5.304;2023-02-18T04:55:31;36.50;28.50;21.00
66336;PMS1003;53139;45.576;5.304;2023-02-18T04:58:32;29.00;27.25;18.25
66336;PMS1003;53139;45.576;5.304;2023-02-18T05:01:32;30.00;26.75;19.25
66336;PMS1003;53139;45.576;5.304;2023-02-18T05:04:33;26.25;26.00;17.75
66336;PMS1003;53139;45.576;5.304;2023-02-18T05:07:33;27.75;24.00;16.50
66336;PMS1003;53139;45.576;5.304;2023-02-18T05:10:34;26.75;21.50;16.50
66336;PMS1003;53139;45.576;5.304;2023-02-18T05:13:36;27.25;22.00;17.00
66336;PMS1003;53139;45.576;5.304;2023-02-18T05:16:37;29.75;25.75;18.00
66336;PMS1003;53139;45.576;5.304;2023-02-18T05:19:37;28.75;25.25;17.25
66336;PMS1003;53139;45.576;5.304;2023-02-18T05:22:38;26.25;24.50;18.25
66336;PMS1003;53139;45.576;5.304;2023-02-18T05:25:38;23.25;21.25;15.00
66336;PMS1003;53139;45.576;5.304;2023-02-18T05:28:38;22.75;19.50;15.25
66336;PMS1003;53139;45.576;5.304;2023-02-18T05:31:39;29.00;22.25;15.00
66336;PMS1003;53139;45.576;5.304;2023-02-18T05:34:39;23.25;21.25;16.00
66336;PMS1003;53139;45.576;5.304;2023-02-18T05:37:40;29.50;22.50;17.00
66336;PMS1003;53139;45.576;5.304;2023-02-18T05:40:40;34.25;33.00;22.00
66336;PMS1003;53139;45.576;5.304;2023-02-18T05:43:41;36.75;30.75;21.50
66336;PMS1003;53139;45.576;5.304;2023-02-18T05:47:09;28.50;26.25;18.25
66336;PMS1003;53139;45.576;5.304;2023-02-18T05:50:11;25.00;21.00;16.00
66336;PMS1003;53139;45.576;5.304;2023-02-18T05:53:12;30.50;22.25;16.75
66336;PMS1003;53139;45.576;5.304;2023-02-18T05:56:12;23.50;18.00;13.00
66336;PMS1003;53139;45.576;5.304;2023-02-18T05:59:13;24.25;22.00;15.00
66336;PMS1003;53139;45.576;5.304;2023-02-18T06:02:14;18.75;17.50;12.75
66336;PMS1003;53139;45.576;5.304;2023-02-18T06:05:14;26.25;17.50;12.00
66336;PMS1003;53139;45.576;5.304;2023-02-18T06:08:15;25.00;17.50;12.75
66336;PMS1003;53139;45.576;5.304;2023-02-18T06:11:15;22.75;20.50;15.00
66336;PMS1003;53139;45.576;5.304;2023-02-18T06:14:15;19.75;17.00;12.50
66336;PMS1003;53139;45.576;5.304;2023-02-18T06:17:16;16.00;14.00;11.25
66336;PMS1003;53139;45.576;5.304;2023-02-18T06:20:17;20.00;17.00;11.25
66336;PMS1003;53139;45.576;5.304;2023-02-18T06:23:18;19.50;15.50;11.25
66336;PMS1003;53139;45.576;5.304;2023-02-18T06:26:18;17.75;17.00;11.75
66336;PMS1003;53139;45.576;5.304;2023-02-18T06:29:19;16.75;15.00;11.50
66336;PMS1003;53139;45.576;5.304;2023-02-18T06:32:19;21.00;17.75;11.75
66336;PMS1003;53139;45.576;5.304;2023-02-18T06:35:19;18.00;17.00;12.75
66336;PMS1003;53139;45.576;5.304;2023-02-18T06:38:20;20.00;17.25;11.25
66336;PMS1003;53139;45.576;5.304;2023-02-18T06:41:20;20.00;18.25;14.00
66336;PMS1003;53139;45.576;5.304;2023-02-18T06:44:21;26.50;21.75;14.75
66336;PMS1003;53139;45.576;5.304;2023-02-18T06:47:21;17.25;14.50;11.25
66336;PMS1003;53139;45.576;5.304;2023-02-18T06:50:21;21.00;17.00;14.00
66336;PMS1003;53139;45.576;5.304;2023-02-18T06:53:22;19.50;16.00;12.75
66336;PMS1003;53139;45.576;5.304;2023-02-18T06:56:23;22.25;20.00;15.00
66336;PMS1003;53139;45.576;5.304;2023-02-18T06:59:23;28.00;19.25;14.00
66336;PMS1003;53139;45.576;5.304;2023-02-18T07:02:24;24.25;21.25;15.75
66336;PMS1003;53139;45.576;5.304;2023-02-18T07:05:24;30.25;21.00;15.00
66336;PMS1003;53139;45.576;5.304;2023-02-18T07:08:25;22.25;18.50;15.00
66336;PMS1003;53139;45.576;5.304;2023-02-18T07:11:25;17.75;16.00;11.50
66336;PMS1003;53139;45.576;5.304;2023-02-18T07:14:26;22.25;15.75;11.75
66336;PMS1003;53139;45.576;5.304;2023-02-18T07:17:27;18.50;16.25;11.25
66336;PMS1003;53139;45.576;5.304;2023-02-18T07:20:27;21.00;17.00;13.25
66336;PMS1003;53139;45.576;5.304;2023-02-18T07:23:28;23.75;18.25;13.25
66336;PMS1003;53139;45.576;5.304;2023-02-18T07:26:29;22.00;16.00;12.75
66336;PMS1003;53139;45.576;5.304;2023-02-18T07:29:29;22.50;16.00;12.00
66336;PMS1003;53139;45.576;5.304;2023-02-18T07:32:29;25.25;23.25;14.25
66336;PMS1003;53139;45.576;5.304;2023-02-18T07:35:30;24.00;22.00;15.50
66336;PMS1003;53139;45.576;5.304;2023-02-18T07:38:31;30.25;24.00;16.00
66336;PMS1003;53139;45.576;5.304;2023-02-18T07:41:31;27.25;23.75;16.25
66336;PMS1003;53139;45.576;5.304;2023-02-18T07:44:31;32.50;26.75;18.75
66336;PMS1003;53139;45.576;5.304;2023-02-18T07:47:32;28.50;23.75;17.50
66336;PMS1003;53139;45.576;5.304;2023-02-18T07:50:32;26.25;22.50;17.75
66336;PMS1003;53139;45.576;5.304;2023-02-18T07:53:36;25.50;20.25;14.75
66336;PMS1003;53139;45.576;5.304;2023-02-18T07:56:37;23.50;21.00;18.00
66336;PMS1003;53139;45.576;5.304;2023-02-18T07:59:37;28.50;23.00;15.50
66336;PMS1003;53139;45.576;5.304;2023-02-18T08:02:38;31.00;24.75;17.00
66336;PMS1003;53139;45.576;5.304;2023-02-18T08:05:38;22.00;20.25;14.25
66336;PMS1003;53139;45.576;5.304;2023-02-18T08:08:39;26.75;24.25;16.00
66336;PMS1003;53139;45.576;5.304;2023-02-18T08:11:39;27.00;25.00;16.00
66336;PMS1003;53139;45.576;5.304;2023-02-18T08:14:40;24.25;23.00;18.00
66336;PMS1003;53139;45.576;5.304;2023-02-18T08:17:41;27.75;25.00;17.25
66336;PMS1003;53139;45.576;5.304;2023-02-18T08:20:41;24.50;19.75;15.75
66336;PMS1003;53139;45.576;5.304;2023-02-18T08:23:42;24.75;24.00;16.75
66336;PMS1003;53139;45.576;5.304;2023-02-18T08:26:42;31.50;27.00;19.00
66336;PMS1003;53139;45.576;5.304;2023-02-18T08:29:43;29.50;25.50;18.25
66336;PMS1003;53139;45.576;5.304;2023-02-18T08:32:43;40.00;32.50;22.00
66336;PMS1003;53139;45.576;5.304;2023-02-18T08:35:44;27.25;25.00;17.00
66336;PMS1003;53139;45.576;5.304;2023-02-18T08:38:46;28.50;27.75;18.00
66336;PMS1003;53139;45.576;5.304;2023-02-18T08:41:46;24.75;21.25;16.50
66336;PMS1003;53139;45.576;5.304;2023-02-18T08:44:46;30.25;25.25;16.00
66336;PMS1003;53139;45.576;5.304;2023-02-18T08:47:47;24.50;21.00;15.75
66336;PMS1003;53139;45.576;5.304;2023-02-18T08:50:47;27.50;22.50;17.50
66336;PMS1003;53139;45.576;5.304;2023-02-18T08:53:48;24.25;20.00;15.25
66336;PMS1003;53139;45.576;5.304;2023-02-18T08:56:49;25.50;21.50;14.75
66336;PMS1003;53139;45.576;5.304;2023-02-18T08:59:54;26.50;21.00;14.75
66336;PMS1003;53139;45.576;5.304;2023-02-18T09:02:55;27.25;25.00;17.75
66336;PMS1003;53139;45.576;5.304;2023-02-18T09:05:56;25.75;24.00;18.25
66336;PMS1003;53139;45.576;5.304;2023-02-18T09:08:56;28.75;21.25;14.50
66336;PMS1003;53139;45.576;5.304;2023-02-18T09:11:56;25.50;24.50;16.00
66336;PMS1003;53139;45.576;5.304;2023-02-18T09:14:57;35.50;30.25;18.25
66336;PMS1003;53139;45.576;5.304;2023-02-18T09:17:58;29.25;24.50;19.25
66336;PMS1003;53139;45.576;5.304;2023-02-18T09:20:58;28.00;24.50;15.00
66336;PMS1003;53139;45.576;5.304;2023-02-18T09:23:59;39.50;32.25;22.50
66336;PMS1003;53139;45.576;5.304;2023-02-18T09:27:00;25.75;25.75;17.50
66336;PMS1003;53139;45.576;5.304;2023-02-18T09:30:02;32.75;25.00;17.75
66336;PMS1003;53139;45.576;5.304;2023-02-18T09:33:04;26.50;23.50;16.00
66336;PMS1003;53139;45.576;5.304;2023-02-18T09:36:05;26.75;22.00;15.75
66336;PMS1003;53139;45.576;5.304;2023-02-18T09:39:05;25.25;22.50;14.00
66336;PMS1003;53139;45.576;5.304;2023-02-18T09:42:06;27.00;24.75;16.50
66336;PMS1003;53139;45.576;5.304;2023-02-18T09:45:13;26.25;24.50;15.00
66336;PMS1003;53139;45.576;5.304;2023-02-18T09:48:15;25.25;21.50;14.00
66336;PMS1003;53139;45.576;5.304;2023-02-18T09:51:16;26.25;21.25;14.75
66336;PMS1003;53139;45.576;5.304;2023-02-18T09:54:17;24.00;22.50;16.25
66336;PMS1003;53139;45.576;5.304;2023-02-18T10:00:29;25.75;21.75;16.00
66336;PMS1003;53139;45.576;5.304;2023-02-18T10:04:02;23.50;20.50;15.50
66336;PMS1003;53139;45.576;5.304;2023-02-18T10:07:13;26.25;22.25;17.00
66336;PMS1003;53139;45.576;5.304;2023-02-18T10:10:26;22.75;20.75;15.25
66336;PMS1003;53139;45.576;5.304;2023-02-18T10:13:32;28.50;22.50;17.25
66336;PMS1003;53139;45.576;5.304;2023-02-18T10:16:33;24.75;18.75;16.25
66336;PMS1003;53139;45.576;5.304;2023-02-18T10:19:35;24.75;21.50;15.75
66336;PMS1003;53139;45.576;5.304;2023-02-18T10:22:39;30.25;26.75;17.25
66336;PMS1003;53139;45.576;5.304;2023-02-18T10:25:42;32.25;24.00;16.50
66336;PMS1003;53139;45.576;5.304;2023-02-18T10:28:44;29.75;27.50;17.25
66336;PMS1003;53139;45.576;5.304;2023-02-18T10:31:49;30.25;27.75;20.50
66336;PMS1003;53139;45.576;5.304;2023-02-18T10:38:11;25.50;25.50;16.50
66336;PMS1003;53139;45.576;5.304;2023-02-18T10:41:56;24.25;22.25;15.75
66336;PMS1003;53139;45.576;5.304;2023-02-18T10:48:23;28.25;24.00;16.75
66336;PMS1003;53139;45.576;5.304;2023-02-18T10:51:49;27.25;23.75;15.00
66336;PMS1003;53139;45.576;5.304;2023-02-18T10:57:57;31.25;28.25;16.75
66336;PMS1003;53139;45.576;5.304;2023-02-18T11:00:59;23.25;19.25;12.00
66336;PMS1003;53139;45.576;5.304;2023-02-18T11:04:11;20.50;18.75;13.50
66336;PMS1003;53139;45.576;5.304;2023-02-18T11:07:21;26.25;22.75;14.25
66336;PMS1003;53139;45.576;5.304;2023-02-18T11:10:32;28.50;26.75;18.75
66336;PMS1003;53139;45.576;5.304;2023-02-18T11:13:37;23.25;21.75;16.00
66336;PMS1003;53139;45.576;5.304;2023-02-18T11:19:42;24.50;21.75;15.00
66336;PMS1003;53139;45.576;5.304;2023-02-18T11:22:42;22.75;19.50;15.00
66336;PMS1003;53139;45.576;5.304;2023-02-18T11:29:08;23.00;17.50;12.50
66336;PMS1003;53139;45.576;5.304;2023-02-18T11:32:17;18.50;16.25;12.25
66336;PMS1003;53139;45.576;5.304;2023-02-18T11:35:19;20.00;18.25;15.00
66336;PMS1003;53139;45.576;5.304;2023-02-18T11:38:28;18.00;16.25;11.75
66336;PMS1003;53139;45.576;5.304;2023-02-18T11:41:41;16.50;14.00;11.00
66336;PMS1003;53139;45.576;5.304;2023-02-18T11:44:55;15.25;14.25;10.00
66336;PMS1003;53139;45.576;5.304;2023-02-18T11:48:00;12.50;11.75;8.75
66336;PMS1003;53139;45.576;5.304;2023-02-18T11:51:26;10.00;8.25;7.00
66336;PMS1003;53139;45.576;5.304;2023-02-18T11:54:32;8.00;8.00;7.00
66336;PMS1003;53139;45.576;5.304;2023-02-18T11:57:36;11.25;8.00;6.00
66336;PMS1003;53139;45.576;5.304;2023-02-18T12:03:42;5.00;5.00;4.00
66336;PMS1003;53139;45.576;5.304;2023-02-18T12:09:55;5.50;4.50;3.00
66336;PMS1003;53139;45.576;5.304;2023-02-18T12:13:00;3.00;3.00;2.00
66336;PMS1003;53139;45.576;5.304;2023-02-18T12:16:10;1.00;1.00;1.00
66336;PMS1003;53139;45.576;5.304;2023-02-18T12:26:24;2.00;1.00;1.00
66336;PMS1003;53139;45.576;5.304;2023-02-18T12:42:43;1.00;1.00;1.00
66336;PMS1003;53139;45.576;5.304;2023-02-18T12:52:52;1.00;0.25;0.00
66336;PMS1003;53139;45.576;5.304;2023-02-18T12:56:00;2.00;2.00;2.00
66336;PMS1003;53139;45.576;5.304;2023-02-18T13:02:41;3.50;3.00;2.00
66336;PMS1003;53139;45.576;5.304;2023-02-18T13:05:56;4.00;4.00;3.00
66336;PMS1003;53139;45.576;5.304;2023-02-18T13:15:38;4.00;3.00;2.00
66336;PMS1003;53139;45.576;5.304;2023-02-18T13:19:06;2.25;2.25;1.75
66336;PMS1003;53139;45.576;5.304;2023-02-18T13:22:14;2.75;2.75;2.00
66336;PMS1003;53139;45.576;5.304;2023-02-18T13:25:17;4.00;3.00;2.75
66336;PMS1003;53139;45.576;5.304;2023-02-18T13:28:36;1.75;1.75;1.75
66336;PMS1003;53139;45.576;5.304;2023-02-18T13:41:46;4.50;4.50;4.25
66336;PMS1003;53139;45.576;5.304;2023-02-18T13:47:54;0.75;0.75;0.75
66336;PMS1003;53139;45.576;5.304;2023-02-18T13:51:03;1.00;1.00;1.00
66336;PMS1003;53139;45.576;5.304;2023-02-18T13:57:24;3.00;3.00;2.00
66336;PMS1003;53139;45.576;5.304;2023-02-18T14:00:34;1.75;1.75;1.00
66336;PMS1003;53139;45.576;5.304;2023-02-18T14:07:15;2.00;1.00;1.00
66336;PMS1003;53139;45.576;5.304;2023-02-18T14:13:24;2.50;1.25;1.00
66336;PMS1003;53139;45.576;5.304;2023-02-18T14:26:27;1.00;1.00;1.00
66336;PMS1003;53139;45.576;5.304;2023-02-18T14:29:48;2.25;2.25;2.00
66336;PMS1003;53139;45.576;5.304;2023-02-18T14:32:51;3.00;3.00;3.00
66336;PMS1003;53139;45.576;5.304;2023-02-18T14:36:03;3.00;3.00;2.00
66336;PMS1003;53139;45.576;5.304;2023-02-18T14:52:22;1.25;1.25;1.00
66336;PMS1003;53139;45.576;5.304;2023-02-18T14:55:27;1.00;1.00;1.00
66336;PMS1003;53139;45.576;5.304;2023-02-18T15:01:38;0.25;0.25;0.25
66336;PMS1003;53139;45.576;5.304;2023-02-18T15:04:39;1.00;1.00;1.00
66336;PMS1003;53139;45.576;5.304;2023-02-18T15:07:39;2.00;2.00;2.00
66336;PMS1003;53139;45.576;5.304;2023-02-18T15:10:54;1.00;1.00;1.00
66336;PMS1003;53139;45.576;5.304;2023-02-18T15:13:58;2.00;2.00;1.25
66336;PMS1003;53139;45.576;5.304;2023-02-18T15:16:58;2.00;2.00;1.00
66336;PMS1003;53139;45.576;5.304;2023-02-18T15:20:02;1.25;0.25;0.25
66336;PMS1003;53139;45.576;5.304;2023-02-18T15:23:05;1.00;1.00;1.00
66336;PMS1003;53139;45.576;5.304;2023-02-18T15:26:06;1.00;1.00;1.00
66336;PMS1003;53139;45.576;5.304;2023-02-18T15:29:15;1.00;1.00;0.75
66336;PMS1003;53139;45.576;5.304;2023-02-18T15:32:25;2.50;1.00;1.00
66336;PMS1003;53139;45.576;5.304;2023-02-18T15:35:29;2.00;2.00;1.75
66336;PMS1003;53139;45.576;5.304;2023-02-18T15:38:31;2.00;1.00;1.00
66336;PMS1003;53139;45.576;5.304;2023-02-18T15:41:32;3.00;2.00;1.00
66336;PMS1003;53139;45.576;5.304;2023-02-18T15:44:33;1.50;1.50;1.00
66336;PMS1003;53139;45.576;5.304;2023-02-18T15:47:36;1.00;1.00;1.00
66336;PMS1003;53139;45.576;5.304;2023-02-18T15:50:48;5.50;1.50;1.00
66336;PMS1003;53139;45.576;5.304;2023-02-18T15:53:51;2.75;2.25;2.00
66336;PMS1003;53139;45.576;5.304;2023-02-18T15:56:56;2.25;2.00;1.00
66336;PMS1003;53139;45.576;5.304;2023-02-18T16:00:11;2.00;2.00;1.00
66336;PMS1003;53139;45.576;5.304;2023-02-18T16:03:22;2.25;2.25;2.00
66336;PMS1003;53139;45.576;5.304;2023-02-18T16:06:29;2.00;2.00;2.00
66336;PMS1003;53139;45.576;5.304;2023-02-18T16:09:34;4.00;2.00;2.00
66336;PMS1003;53139;45.576;5.304;2023-02-18T16:12:36;1.75;1.75;1.00
66336;PMS1003;53139;45.576;5.304;2023-02-18T16:15:38;2.00;2.00;1.25
66336;PMS1003;53139;45.576;5.304;2023-02-18T16:18:40;3.00;3.00;2.75
66336;PMS1003;53139;45.576;5.304;2023-02-18T16:21:44;3.00;3.00;2.75
66336;PMS1003;53139;45.576;5.304;2023-02-18T16:24:45;2.25;2.00;2.00
66336;PMS1003;53139;45.576;5.304;2023-02-18T16:28:01;3.75;2.75;2.50
66336;PMS1003;53139;45.576;5.304;2023-02-18T16:31:29;3.50;2.00;1.50
66336;PMS1003;53139;45.576;5.304;2023-02-18T16:34:29;4.00;3.00;3.00
66336;PMS1003;53139;45.576;5.304;2023-02-18T16:37:30;2.00;2.00;1.25
66336;PMS1003;53139;45.576;5.304;2023-02-18T16:40:39;8.00;8.00;7.00
66336;PMS1003;53139;45.576;5.304;2023-02-18T16:43:40;8.00;7.00;5.00
66336;PMS1003;53139;45.576;5.304;2023-02-18T16:46:41;16.50;15.00;11.00
66336;PMS1003;53139;45.576;5.304;2023-02-18T16:49:43;15.25;13.00;10.00
66336;PMS1003;53139;45.576;5.304;2023-02-18T16:52:45;10.00;9.50;8.25
66336;PMS1003;53139;45.576;5.304;2023-02-18T16:55:47;11.75;10.75;8.75
66336;PMS1003;53139;45.576;5.304;2023-02-18T16:58:48;7.50;6.00;4.00
66336;PMS1003;53139;45.576;5.304;2023-02-18T17:01:49;5.25;5.25;4.75
66336;PMS1003;53139;45.576;5.304;2023-02-18T17:04:50;5.00;3.50;3.00
66336;PMS1003;53139;45.576;5.304;2023-02-18T17:07:58;7.00;5.00;4.00
66336;PMS1003;53139;45.576;5.304;2023-02-18T17:11:00;7.25;4.50;3.75
66336;PMS1003;53139;45.576;5.304;2023-02-18T17:14:01;6.75;5.25;5.00
66336;PMS1003;53139;45.576;5.304;2023-02-18T17:17:04;7.25;7.25;5.50
66336;PMS1003;53139;45.576;5.304;2023-02-18T17:20:05;7.25;6.75;5.25
66336;PMS1003;53139;45.576;5.304;2023-02-18T17:23:06;7.00;7.00;6.00
66336;PMS1003;53139;45.576;5.304;2023-02-18T17:26:14;14.00;11.50;8.00
66336;PMS1003;53139;45.576;5.304;2023-02-18T17:29:20;13.25;7.75;5.75
66336;PMS1003;53139;45.576;5.304;2023-02-18T17:32:20;11.00;9.50;7.25
66336;PMS1003;53139;45.576;5.304;2023-02-18T17:35:21;15.75;13.50;9.00
66336;PMS1003;53139;45.576;5.304;2023-02-18T17:38:22;9.50;6.75;5.25
66336;PMS1003;53139;45.576;5.304;2023-02-18T17:41:23;6.25;5.00;4.50
66336;PMS1003;53139;45.576;5.304;2023-02-18T17:44:23;7.25;7.25;6.00
66336;PMS1003;53139;45.576;5.304;2023-02-18T17:47:25;9.25;7.00;6.00
66336;PMS1003;53139;45.576;5.304;2023-02-18T17:50:26;7.00;7.00;6.00
66336;PMS1003;53139;45.576;5.304;2023-02-18T17:53:27;9.00;8.25;6.50
66336;PMS1003;53139;45.576;5.304;2023-02-18T17:56:28;1.00;0.75;0.00
66336;PMS1003;53139;45.576;5.304;2023-02-18T17:59:28;11.50;11.50;9.75
66336;PMS1003;53139;45.576;5.304;2023-02-18T18:02:29;16.75;13.75;9.75
66336;PMS1003;53139;45.576;5.304;2023-02-18T18:05:30;12.75;12.00;9.75
66336;PMS1003;53139;45.576;5.304;2023-02-18T18:08:33;13.75;13.00;11.00
66336;PMS1003;53139;45.576;5.304;2023-02-18T18:11:33;14.75;13.50;9.50
66336;PMS1003;53139;45.576;5.304;2023-02-18T18:14:34;18.50;14.25;10.25
66336;PMS1003;53139;45.576;5.304;2023-02-18T18:17:35;30.50;17.50;11.75
66336;PMS1003;53139;45.576;5.304;2023-02-18T18:20:35;20.75;18.00;14.50
66336;PMS1003;53139;45.576;5.304;2023-02-18T18:23:36;21.00;16.25;14.00
66336;PMS1003;53139;45.576;5.304;2023-02-18T18:26:37;18.75;14.00;10.00
66336;PMS1003;53139;45.576;5.304;2023-02-18T18:29:37;14.75;12.25;9.50
66336;PMS1003;53139;45.576;5.304;2023-02-18T18:32:38;21.75;17.75;13.75
66336;PMS1003;53139;45.576;5.304;2023-02-18T18:35:38;18.75;12.25;8.75
66336;PMS1003;53139;45.576;5.304;2023-02-18T18:38:39;15.50;13.75;11.25
66336;PMS1003;53139;45.576;5.304;2023-02-18T18:41:39;19.25;14.50;12.25
66336;PMS1003;53139;45.576;5.304;2023-02-18T18:44:39;18.25;14.00;12.50
66336;PMS1003;53139;45.576;5.304;2023-02-18T18:47:40;21.00;16.75;13.25
66336;PMS1003;53139;45.576;5.304;2023-02-18T18:50:43;21.25;16.50;12.25
66336;PMS1003;53139;45.576;5.304;2023-02-18T18:53:44;9.50;9.50;7.25
66336;PMS1003;53139;45.576;5.304;2023-02-18T18:56:44;14.00;9.75;8.25
66336;PMS1003;53139;45.576;5.304;2023-02-18T18:59:45;15.00;13.25;10.00
66336;PMS1003;53139;45.576;5.304;2023-02-18T19:02:45;11.25;10.00;7.00
66336;PMS1003;53139;45.576;5.304;2023-02-18T19:05:46;14.50;12.00;8.75
66336;PMS1003;53139;45.576;5.304;2023-02-18T19:08:47;15.00;13.25;10.00
66336;PMS1003;53139;45.576;5.304;2023-02-18T19:11:48;15.75;14.00;10.25
66336;PMS1003;53139;45.576;5.304;2023-02-18T19:14:48;15.00;13.50;10.00
66336;PMS1003;53139;45.576;5.304;2023-02-18T19:17:50;23.50;20.00;14.50
66336;PMS1003;53139;45.576;5.304;2023-02-18T19:20:52;24.00;23.50;18.00
66336;PMS1003;53139;45.576;5.304;2023-02-18T19:23:52;48.25;39.00;24.00
66336;PMS1003;53139;45.576;5.304;2023-02-18T19:26:53;43.25;35.75;25.25
66336;PMS1003;53139;45.576;5.304;2023-02-18T19:29:54;30.50;27.25;19.00
66336;PMS1003;53139;45.576;5.304;2023-02-18T19:32:56;36.25;29.00;19.50
66336;PMS1003;53139;45.576;5.304;2023-02-18T19:35:58;53.50;42.25;29.75
66336;PMS1003;53139;45.576;5.304;2023-02-18T19:38:58;34.50;30.00;23.75
66336;PMS1003;53139;45.576;5.304;2023-02-18T19:41:58;43.00;34.25;22.00
66336;PMS1003;53139;45.576;5.304;2023-02-18T19:44:59;21.25;19.50;14.75
66336;PMS1003;53139;45.576;5.304;2023-02-18T19:47:59;26.00;20.75;14.00
66336;PMS1003;53139;45.576;5.304;2023-02-18T19:51:07;43.00;33.00;27.00